Time;durP1;ratioP1;P1;durP2;ratioP2;P2;SDS_P1;SDS_P2;PMS_P1;PMS_P2;Temp;Humidity;BMP_temperature;BMP_pressure;BME280_temperature;BME280_humidity;BME280_pressure;Samples;Min_cycle;Max_cycle;Signal;HPM_P1;HPM_P2
2022/08/30 00:01:01;;;;;;;15.13;10.10;;;20.70;36.80;;;;;;5031745;28;20434;-67
2022/08/30 00:03:46;;;;;;;11.60;10.50;;;20.70;35.50;;;;;;5031765;28;20199;-67
2022/08/30 00:06:18;;;;;;;12.43;11.13;;;20.60;67.50;;;;;;5031497;28;20433;-67
2022/08/30 00:08:45;;;;;;;11.03;9.93;;;20.60;46.20;;;;;;5031565;28;20468;-65
2022/08/30 00:11:13;;;;;;;14.03;11.20;;;20.60;1.00;;;;;;5031393;28;20403;-68
2022/08/30 00:13:41;;;;;;;11.57;10.40;;;20.60;1.00;;;;;;5031421;28;20405;-67
2022/08/30 00:16:07;;;;;;;16.83;10.93;;;20.50;9.00;;;;;;5031406;28;20520;-68
2022/08/30 00:18:33;;;;;;;12.83;11.30;;;20.40;43.40;;;;;;5031258;28;20413;-67
2022/08/30 00:21:00;;;;;;;14.23;11.73;;;20.40;13.30;;;;;;5031295;28;20417;-67
2022/08/30 00:23:26;;;;;;;12.33;10.60;;;20.50;1.00;;;;;;5031114;28;20877;-68
2022/08/30 00:25:51;;;;;;;12.77;10.27;;;20.50;1.00;;;;;;5031533;28;20441;-68
2022/08/30 00:28:17;;;;;;;14.37;9.80;;;20.50;1.00;;;;;;5031126;28;20164;-67
2022/08/30 00:30:44;;;;;;;14.57;9.97;;;20.50;1.00;;;;;;5031401;28;20522;-68
2022/08/30 00:33:10;;;;;;;12.60;11.30;;;20.50;1.00;;;;;;5031161;28;20493;-67
2022/08/30 00:35:38;;;;;;;16.40;10.73;;;20.40;1.00;;;;;;5031050;28;20483;-67
2022/08/30 00:38:05;;;;;;;11.33;10.13;;;20.50;1.00;;;;;;5030882;28;20446;-67
2022/08/30 00:40:31;;;;;;;11.83;9.90;;;20.50;1.00;;;;;;5030990;28;20414;-68
2022/08/30 00:42:59;;;;;;;12.80;9.97;;;20.40;1.00;;;;;;5031164;28;20409;-68
2022/08/30 00:45:34;;;;;;;12.30;10.27;;;20.40;1.00;;;;;;5031209;28;20593;-68
2022/08/30 00:48:00;;;;;;;10.50;9.50;;;20.40;1.00;;;;;;5031091;28;20436;-67
2022/08/30 00:50:40;;;;;;;22.93;11.67;;;20.30;1.00;;;;;;5031165;28;20430;-67
2022/08/30 00:53:15;;;;;;;12.23;10.47;;;20.30;1.00;;;;;;5029741;28;20418;-67
2022/08/30 00:55:42;;;;;;;11.47;10.37;;;20.40;1.00;;;;;;5032546;28;20481;-67
2022/08/30 00:58:13;;;;;;;11.73;10.33;;;20.30;1.00;;;;;;5035030;28;20414;-68
2022/08/30 01:00:39;;;;;;;15.47;9.77;;;20.40;1.00;;;;;;5035250;28;20410;-64
2022/08/30 01:03:07;;;;;;;24.13;10.60;;;20.30;1.00;;;;;;5034753;28;20441;-65
2022/08/30 01:05:35;;;;;;;10.67;9.60;;;20.30;1.00;;;;;;5034763;28;20796;-65
2022/08/30 01:08:01;;;;;;;11.57;10.60;;;20.30;1.00;;;;;;5034628;28;20498;-65
2022/08/30 01:10:26;;;;;;;12.13;10.70;;;20.20;1.00;;;;;;5034518;28;20501;-66
2022/08/30 01:12:52;;;;;;;12.93;11.27;;;20.20;1.00;;;;;;5034619;28;20398;-66
2022/08/30 01:15:18;;;;;;;12.07;10.57;;;20.20;1.00;;;;;;5034759;28;20195;-66
2022/08/30 01:17:46;;;;;;;10.90;9.90;;;20.10;1.00;;;;;;5034472;28;20254;-66
2022/08/30 01:20:19;;;;;;;12.00;10.70;;;20.00;24.90;;;;;;5034492;28;20172;-66
2022/08/30 01:22:47;;;;;;;16.77;10.40;;;20.00;57.60;;;;;;5034342;28;20414;-66
2022/08/30 01:25:16;;;;;;;12.30;10.67;;;20.00;43.20;;;;;;5034409;28;20410;-66
2022/08/30 01:27:49;;;;;;;12.27;9.60;;;19.90;93.80;;;;;;5034439;28;20402;-66
2022/08/30 01:30:15;;;;;;;15.00;10.03;;;19.90;99.90;;;;;;5034341;28;20402;-66
2022/08/30 01:32:44;;;;;;;12.10;10.70;;;19.90;99.90;;;;;;5034191;28;20477;-66
2022/08/30 01:35:17;;;;;;;10.50;9.60;;;20.00;94.30;;;;;;5034176;28;20310;-66
2022/08/30 01:37:44;;;;;;;11.13;9.90;;;20.00;91.40;;;;;;5034181;28;20902;-66
2022/08/30 01:40:12;;;;;;;10.40;9.47;;;20.00;91.70;;;;;;5034073;28;20833;-66
2022/08/30 01:42:37;;;;;;;11.10;9.90;;;20.00;16.00;;;;;;5033691;28;20409;-66
2022/08/30 01:45:05;;;;;;;14.30;10.03;;;20.00;39.60;;;;;;5033796;28;20453;-65
2022/08/30 01:47:31;;;;;;;11.17;9.80;;;20.00;22.00;;;;;;5033810;28;20187;-66
2022/08/30 01:49:57;;;;;;;22.80;11.47;;;19.90;41.00;;;;;;5033777;28;20417;-66
2022/08/30 01:52:24;;;;;;;17.13;11.23;;;19.90;99.90;;;;;;5033897;28;20498;-66
2022/08/30 01:54:50;;;;;;;11.17;10.00;;;19.90;61.10;;;;;;5034047;28;20402;-66
2022/08/30 01:57:19;;;;;;;13.03;10.27;;;19.80;99.90;;;;;;5033863;28;20537;-66
2022/08/30 01:59:46;;;;;;;20.23;11.70;;;19.80;99.90;;;;;;5033533;28;20175;-66
2022/08/30 02:02:18;;;;;;;11.63;10.47;;;19.90;46.30;;;;;;5033533;28;20785;-66
2022/08/30 02:04:46;;;;;;;11.73;10.33;;;19.90;92.50;;;;;;5033446;28;20460;-66
2022/08/30 02:07:11;;;;;;;11.80;10.53;;;19.70;99.90;;;;;;5033015;28;20422;-66
2022/08/30 02:09:38;;;;;;;17.17;11.43;;;19.70;99.90;;;;;;5033561;28;20429;-65
2022/08/30 02:12:06;;;;;;;11.50;10.30;;;19.60;99.90;;;;;;5033778;28;20267;-66
2022/08/30 02:14:36;;;;;;;11.97;10.60;;;19.70;99.90;;;;;;5033953;28;20957;-66
2022/08/30 02:17:04;;;;;;;11.40;9.80;;;19.60;99.90;;;;;;5033462;28;20434;-65
2022/08/30 02:19:30;;;;;;;13.50;10.47;;;19.60;99.90;;;;;;5033462;28;20445;-66
2022/08/30 02:21:55;;;;;;;12.07;9.63;;;19.60;99.90;;;;;;5033248;28;20823;-66
2022/08/30 02:24:21;;;;;;;12.80;10.90;;;19.60;99.90;;;;;;5033377;28;20207;-66
2022/08/30 02:26:47;;;;;;;19.03;12.77;;;19.70;99.90;;;;;;5033178;28;20604;-66
2022/08/30 02:29:13;;;;;;;16.83;11.13;;;19.70;99.90;;;;;;5033770;28;20175;-66
2022/08/30 02:31:39;;;;;;;12.83;10.20;;;19.60;99.90;;;;;;5033226;28;20172;-66
2022/08/30 02:34:04;;;;;;;13.27;11.10;;;19.60;99.90;;;;;;5033155;28;20183;-66
2022/08/30 02:36:30;;;;;;;11.90;10.67;;;19.50;99.90;;;;;;5033187;28;20199;-66
2022/08/30 02:38:56;;;;;;;12.50;9.90;;;19.50;99.90;;;;;;5033249;28;20638;-66
2022/08/30 02:41:22;;;;;;;15.33;10.90;;;19.50;99.90;;;;;;5033347;28;20172;-66
2022/08/30 02:43:49;;;;;;;12.60;11.20;;;19.50;99.90;;;;;;5036380;28;20691;-67
2022/08/30 02:46:16;;;;;;;11.93;10.57;;;19.60;99.90;;;;;;5036869;28;20453;-66
2022/08/30 02:48:42;;;;;;;16.80;10.90;;;19.60;99.90;;;;;;5042529;28;20482;-67
2022/08/30 02:51:11;;;;;;;12.27;11.00;;;19.60;99.90;;;;;;5034951;28;20449;-66
2022/08/30 02:53:38;;;;;;;12.33;11.13;;;19.60;91.20;;;;;;5032960;28;20659;-66
2022/08/30 02:56:04;;;;;;;14.37;11.40;;;19.60;54.40;;;;;;5032695;28;20503;-66
2022/08/30 02:58:29;;;;;;;15.17;12.30;;;19.50;85.70;;;;;;5032714;28;20410;-66
2022/08/30 03:00:55;;;;;;;21.13;12.37;;;19.50;60.80;;;;;;5032728;28;20171;-66
2022/08/30 03:03:21;;;;;;;14.37;10.70;;;19.50;39.90;;;;;;5032573;28;20195;-66
2022/08/30 03:05:47;;;;;;;17.13;11.40;;;19.50;26.50;;;;;;5032621;28;20213;-66
2022/08/30 03:08:13;;;;;;;19.00;11.60;;;19.40;20.70;;;;;;5032226;28;20410;-66
2022/08/30 03:10:39;;;;;;;20.17;17.13;;;19.40;10.10;;;;;;5032488;28;20168;-66
2022/08/30 03:13:08;;;;;;;14.90;12.50;;;19.30;91.80;;;;;;5031313;28;20437;-66
2022/08/30 03:15:36;;;;;;;12.67;11.37;;;19.20;99.90;;;;;;5031895;28;20199;-66
2022/08/30 03:18:02;;;;;;;12.83;10.63;;;19.10;99.90;;;;;;5031398;28;20422;-66
2022/08/30 03:20:28;;;;;;;12.27;11.17;;;19.10;99.90;;;;;;5032082;28;20410;-66
2022/08/30 03:22:54;;;;;;;11.80;10.70;;;19.10;99.90;;;;;;5032022;28;20306;-66
2022/08/30 03:25:21;;;;;;;17.07;10.83;;;19.00;99.90;;;;;;5032032;28;20195;-65
2022/08/30 03:27:49;;;;;;;18.97;11.90;;;18.90;99.90;;;;;;5031954;28;20174;-66
2022/08/30 03:30:16;;;;;;;16.33;12.80;;;19.00;99.90;;;;;;5032005;28;20407;-66
2022/08/30 03:32:42;;;;;;;14.80;12.37;;;19.00;99.90;;;;;;5031891;28;20911;-66
2022/08/30 03:35:08;;;;;;;13.97;11.40;;;19.10;99.90;;;;;;5031856;28;20448;-66
2022/08/30 03:37:35;;;;;;;13.83;11.37;;;19.10;99.90;;;;;;5031716;28;20722;-66
2022/08/30 03:40:01;;;;;;;12.30;10.93;;;19.00;99.90;;;;;;5031687;28;20505;-66
2022/08/30 03:42:27;;;;;;;13.90;10.93;;;19.10;99.90;;;;;;5031732;28;20422;-66
2022/08/30 03:44:53;;;;;;;11.33;10.23;;;19.10;99.90;;;;;;5032055;28;20469;-66
2022/08/30 03:47:19;;;;;;;15.10;11.63;;;19.10;99.90;;;;;;5031643;28;20617;-66
2022/08/30 03:49:45;;;;;;;19.27;10.47;;;19.00;99.90;;;;;;5031534;28;20679;-66
2022/08/30 03:52:11;;;;;;;12.83;10.83;;;19.00;99.90;;;;;;5031725;28;20411;-67
2022/08/30 03:54:38;;;;;;;22.80;12.13;;;19.00;99.90;;;;;;5031708;28;20465;-67
2022/08/30 03:57:05;;;;;;;19.63;11.90;;;19.10;99.90;;;;;;5031161;28;20219;-67
2022/08/30 03:59:30;;;;;;;17.93;11.70;;;19.00;99.90;;;;;;5031334;28;20418;-67
2022/08/30 04:01:57;;;;;;;22.30;11.77;;;18.90;99.90;;;;;;5031406;28;20459;-66
2022/08/30 04:04:24;;;;;;;14.70;12.13;;;19.00;99.90;;;;;;5031672;28;20304;-67
2022/08/30 04:06:49;;;;;;;14.50;11.20;;;18.60;1.00;;;;;;5031299;28;20433;-67
2022/08/30 04:09:15;;;;;;;19.60;12.67;;;18.70;1.00;;;;;;5031198;28;20402;-67
2022/08/30 04:11:41;;;;;;;20.93;10.97;;;18.80;1.00;;;;;;5031222;28;20221;-66
2022/08/30 04:14:07;;;;;;;20.33;11.00;;;18.80;1.00;;;;;;5031232;28;20780;-66
2022/08/30 04:16:33;;;;;;;26.90;12.20;;;18.80;1.00;;;;;;5031036;28;20210;-66
2022/08/30 04:18:59;;;;;;;25.43;12.20;;;18.80;1.00;;;;;;5031078;28;20406;-66
2022/08/30 04:21:25;;;;;;;28.53;12.63;;;18.70;1.00;;;;;;5031063;28;20179;-66
2022/08/30 04:23:50;;;;;;;22.50;13.10;;;18.80;1.00;;;;;;5031071;28;20219;-66
2022/08/30 04:26:16;;;;;;;22.20;12.43;;;18.80;1.00;;;;;;5030828;28;20450;-66
2022/08/30 04:28:42;;;;;;;25.87;14.67;;;18.80;1.00;;;;;;5030927;28;20710;-66
2022/08/30 04:31:13;;;;;;;21.53;11.80;;;18.80;1.00;;;;;;5031016;28;20172;-66
2022/08/30 04:33:40;;;;;;;17.07;11.73;;;18.80;1.00;;;;;;5031275;28;20163;-66
2022/08/30 04:36:07;;;;;;;15.97;12.30;;;18.70;1.00;;;;;;5030909;28;20465;-66
2022/08/30 04:38:35;;;;;;;16.13;12.20;;;18.60;1.00;;;;;;5030844;28;20406;-66
2022/08/30 04:41:01;;;;;;;18.93;13.00;;;18.70;1.00;;;;;;5031011;28;20911;-66
2022/08/30 04:43:26;;;;;;;35.50;12.60;;;18.60;1.00;;;;;;5030653;28;20442;-66
2022/08/30 04:45:53;;;;;;;28.00;12.60;;;18.70;1.00;;;;;;5030530;28;20433;-66
2022/08/30 04:48:21;;;;;;;22.40;11.80;;;18.60;1.00;;;;;;5030997;28;20604;-66
2022/08/30 04:50:47;;;;;;;15.93;11.70;;;18.60;1.00;;;;;;5030676;28;20504;-66
2022/08/30 04:53:13;;;;;;;34.97;13.43;;;18.60;1.00;;;;;;5030584;28;20418;-66
2022/08/30 04:55:40;;;;;;;26.90;12.93;;;18.70;1.00;;;;;;5030458;28;20872;-66
2022/08/30 04:58:06;;;;;;;17.67;10.97;;;18.70;99.90;;;;;;5030560;28;20429;-66
2022/08/30 05:00:31;;;;;;;29.47;12.10;;;18.80;99.90;;;;;;5030833;28;20485;-66
2022/08/30 05:02:57;;;;;;;11.53;10.30;;;18.80;99.90;;;;;;5030885;28;20263;-66
2022/08/30 05:05:38;;;;;;;22.90;10.97;;;18.70;99.90;;;;;;5031100;28;20536;-66
2022/08/30 05:08:06;;;;;;;15.57;12.13;;;18.70;99.90;;;;;;5031741;28;20179;-66
2022/08/30 05:10:33;;;;;;;14.30;11.67;;;18.80;99.90;;;;;;5030916;28;20398;-66
2022/08/30 05:12:59;;;;;;;13.57;11.20;;;18.80;99.90;;;;;;5030802;28;20410;-66
2022/08/30 05:15:25;;;;;;;12.40;11.00;;;18.90;99.90;;;;;;5030640;28;20402;-66
2022/08/30 05:17:50;;;;;;;16.57;10.83;;;18.80;99.90;;;;;;5031006;28;20476;-66
2022/08/30 05:20:16;;;;;;;18.17;11.00;;;18.90;99.90;;;;;;5030632;28;20222;-66
2022/08/30 05:22:48;;;;;;;12.77;11.57;;;18.80;1.00;;;;;;5030930;28;20175;-66
2022/08/30 05:25:16;;;;;;;23.27;13.13;;;18.90;99.90;;;;;;5032252;28;20214;-66
2022/08/30 05:27:42;;;;;;;36.63;13.30;;;18.90;99.90;;;;;;5032618;28;20497;-66
2022/08/30 05:30:08;;;;;;;35.90;11.70;;;19.10;99.90;;;;;;5030639;28;20490;-66
2022/08/30 05:32:34;;;;;;;29.27;12.27;;;19.90;35.00;;;;;;5029188;28;20576;-66
2022/08/30 05:35:00;;;;;;;12.03;10.83;;;21.30;1.00;;;;;;5030363;28;20497;-66
2022/08/30 05:37:26;;;;;;;19.20;11.20;;;22.60;1.00;;;;;;5030039;28;20192;-66
2022/08/30 05:39:52;;;;;;;14.50;10.37;;;23.60;99.90;;;;;;5030498;28;20221;-67
2022/08/30 05:42:18;;;;;;;14.93;9.67;;;24.50;99.90;;;;;;5032758;28;20425;-66
2022/08/30 05:44:44;;;;;;;11.03;9.93;;;25.00;99.90;;;;;;5033740;28;20234;-66
2022/08/30 05:47:09;;;;;;;14.17;10.37;;;25.50;99.90;;;;;;5033765;28;20483;-66
2022/08/30 05:49:35;;;;;;;18.03;10.03;;;25.80;99.90;;;;;;5033984;28;20289;-66
2022/08/30 05:52:03;;;;;;;22.60;10.37;;;26.10;99.90;;;;;;5034323;28;20175;-66
2022/08/30 05:54:29;;;;;;;11.53;10.47;;;26.00;99.90;;;;;;5033892;28;20175;-66
2022/08/30 05:56:54;;;;;;;19.43;10.87;;;25.40;99.90;;;;;;5033336;28;20941;-67
2022/08/30 05:59:21;;;;;;;35.33;14.87;;;24.70;99.90;;;;;;5033945;28;20659;-66
2022/08/30 06:01:46;;;;;;;17.93;10.70;;;24.50;99.90;;;;;;5033668;28;20277;-67
2022/08/30 06:04:13;;;;;;;12.90;10.03;;;24.40;99.90;;;;;;5033715;28;20453;-66
2022/08/30 06:06:41;;;;;;;42.50;12.63;;;24.30;99.90;;;;;;5033776;28;20188;-71
2022/08/30 06:09:09;;;;;;;35.33;12.00;;;24.30;99.90;;;;;;5033463;28;20810;-66
2022/08/30 06:11:35;;;;;;;13.47;11.17;;;24.30;99.90;;;;;;5033410;28;20417;-66
2022/08/30 06:14:02;;;;;;;23.17;13.00;;;24.30;99.90;;;;;;5033332;28;20406;-66
2022/08/30 06:16:28;;;;;;;38.83;13.37;;;24.20;99.90;;;;;;5033189;28;20468;-67
2022/08/30 06:18:56;;;;;;;12.10;10.30;;;24.20;99.90;;;;;;5033219;28;20434;-66
2022/08/30 06:21:32;;;;;;;30.73;12.13;;;24.40;99.90;;;;;;5033270;28;20452;-66
2022/08/30 06:23:58;;;;;;;12.37;10.53;;;24.70;99.90;;;;;;5033208;28;20453;-66
2022/08/30 06:26:26;;;;;;;15.77;10.03;;;24.50;99.90;;;;;;5033049;28;20800;-66
2022/08/30 06:28:52;;;;;;;19.53;10.57;;;24.40;99.90;;;;;;5033176;28;20175;-66
2022/08/30 06:31:20;;;;;;;15.30;10.60;;;24.10;99.90;;;;;;5033055;28;20453;-66
2022/08/30 06:33:46;;;;;;;11.33;9.67;;;23.70;99.90;;;;;;5033040;28;20426;-66
2022/08/30 06:36:16;;;;;;;12.50;11.27;;;23.80;99.90;;;;;;5032891;28;20426;-66
2022/08/30 06:38:44;;;;;;;11.37;10.17;;;23.70;99.90;;;;;;5032772;28;20841;-67
2022/08/30 06:41:12;;;;;;;10.47;9.47;;;23.60;99.90;;;;;;5032732;28;20449;-66
2022/08/30 06:43:38;;;;;;;14.33;9.63;;;23.70;99.90;;;;;;5032853;28;20454;-67
2022/08/30 06:46:06;;;;;;;11.77;10.40;;;23.70;99.90;;;;;;5032684;28;20732;-66
2022/08/30 06:48:32;;;;;;;17.97;11.00;;;23.40;99.90;;;;;;5032898;28;20163;-66
2022/08/30 06:50:58;;;;;;;15.70;9.97;;;23.00;99.90;;;;;;5032809;28;20406;-66
2022/08/30 06:53:24;;;;;;;16.10;9.30;;;23.60;99.90;;;;;;5031467;28;20174;-66
2022/08/30 06:56:07;;;;;;;14.53;11.70;;;23.80;99.90;;;;;;5032320;28;20213;-66
2022/08/30 06:58:33;;;;;;;12.07;10.20;;;23.90;99.90;;;;;;5032474;28;20533;-66
2022/08/30 07:00:59;;;;;;;12.83;10.73;;;24.00;99.90;;;;;;5032355;28;20407;-67
2022/08/30 07:03:27;;;;;;;24.43;12.03;;;24.30;99.90;;;;;;5032361;28;20962;-67
2022/08/30 07:05:55;;;;;;;13.10;11.83;;;24.30;99.90;;;;;;5032543;28;20188;-67
2022/08/30 07:08:21;;;;;;;13.43;12.03;;;24.00;99.90;;;;;;5031995;28;20411;-66
2022/08/30 07:10:48;;;;;;;11.63;10.30;;;23.20;99.90;;;;;;5032952;28;20398;-66
2022/08/30 07:13:15;;;;;;;16.17;11.80;;;23.30;99.90;;;;;;5033063;28;20417;-67
2022/08/30 07:15:42;;;;;;;15.83;11.50;;;23.70;99.90;;;;;;5032024;28;20935;-66
2022/08/30 07:20:54;;;;;;;13.90;12.53;;;23.20;99.90;;;;;;5032674;28;20456;-67
2022/08/30 07:23:20;;;;;;;14.77;12.60;;;23.40;99.90;;;;;;5032003;28;20450;-67
2022/08/30 07:25:46;;;;;;;14.77;11.87;;;23.40;99.90;;;;;;5032161;28;20563;-67
2022/08/30 07:28:11;;;;;;;14.73;12.63;;;23.60;99.90;;;;;;5031625;28;20443;-67
2022/08/30 07:30:39;;;;;;;10.70;9.60;;;23.90;99.90;;;;;;5031960;28;20182;-67
2022/08/30 07:33:04;;;;;;;12.10;10.90;;;24.40;99.90;;;;;;5037983;28;20176;-68
2022/08/30 07:35:30;;;;;;;14.50;11.70;;;24.20;99.90;;;;;;5042948;28;20426;-68
2022/08/30 07:37:57;;;;;;;11.30;10.20;;;24.20;99.90;;;;;;5040744;28;20171;-68
2022/08/30 07:40:23;;;;;;;15.10;13.50;;;24.50;99.90;;;;;;5032938;28;20222;-67
2022/08/30 07:42:49;;;;;;;15.33;12.30;;;24.20;99.90;;;;;;5030456;28;20411;-67
2022/08/30 07:45:14;;;;;;;15.73;13.70;;;24.50;99.90;;;;;;5031322;28;20810;-67
2022/08/30 07:47:40;;;;;;;14.33;12.93;;;24.10;99.90;;;;;;5031368;28;20207;-67
2022/08/30 07:50:07;;;;;;;17.17;13.60;;;23.80;99.90;;;;;;5031691;28;20166;-67
2022/08/30 07:52:33;;;;;;;15.23;12.30;;;23.30;99.90;;;;;;5031383;28;20614;-67
2022/08/30 07:55:00;;;;;;;13.27;11.87;;;23.30;99.90;;;;;;5031761;28;20409;-67
2022/08/30 07:57:26;;;;;;;15.73;12.60;;;23.40;99.90;;;;;;5031436;28;20877;-67
2022/08/30 07:59:52;;;;;;;16.63;13.70;;;23.90;99.90;;;;;;5031267;28;20498;-67
2022/08/30 08:02:18;;;;;;;24.90;16.40;;;23.80;99.90;;;;;;5031182;28;20961;-67
2022/08/30 08:04:45;;;;;;;15.13;13.53;;;23.30;99.90;;;;;;5030892;28;20207;-67
2022/08/30 08:07:11;;;;;;;14.80;12.23;;;23.50;99.90;;;;;;5031193;28;20433;-67
2022/08/30 08:09:37;;;;;;;14.07;12.77;;;23.70;99.90;;;;;;5031243;28;20407;-66
2022/08/30 08:12:05;;;;;;;17.80;13.20;;;23.90;99.90;;;;;;5030841;28;20781;-68
2022/08/30 08:14:32;;;;;;;14.70;12.50;;;23.90;99.90;;;;;;5030908;28;20410;-68
2022/08/30 08:16:59;;;;;;;18.13;13.53;;;23.20;99.90;;;;;;5224217;23;20821;-68
2022/08/30 08:19:25;;;;;;;13.37;12.17;;;23.20;99.90;;;;;;5009883;28;20435;-69
2022/08/30 08:21:55;;;;;;;16.67;13.93;;;23.30;99.90;;;;;;5010876;28;20404;-68
2022/08/30 08:24:22;;;;;;;14.23;12.83;;;23.40;99.90;;;;;;5016075;28;20235;-67
2022/08/30 08:26:48;;;;;;;14.03;12.53;;;23.20;99.90;;;;;;5011842;28;20439;-67
2022/08/30 08:29:14;;;;;;;14.80;12.90;;;23.20;99.90;;;;;;5010944;28;20732;-68
2022/08/30 08:31:40;;;;;;;16.07;12.13;;;23.00;99.90;;;;;;5011496;28;20168;-67
2022/08/30 08:34:07;;;;;;;15.47;13.93;;;23.20;99.90;;;;;;5011162;28;20414;-67
2022/08/30 08:36:33;;;;;;;12.83;11.50;;;23.60;99.90;;;;;;5010672;28;20508;-68
2022/08/30 08:39:01;;;;;;;16.70;12.47;;;23.70;99.90;;;;;;5012698;28;20772;-67
2022/08/30 08:41:48;;;;;;;18.03;12.93;;;24.00;99.90;;;;;;5010896;28;20504;-66
2022/08/30 08:44:26;;;;;;;16.73;12.50;;;24.10;99.90;;;;;;5010466;28;20537;-67
2022/08/30 08:47:22;;;;;;;15.03;13.33;;;23.90;99.90;;;;;;5010935;28;20541;-66
2022/08/30 08:49:53;;;;;;;12.67;11.47;;;23.70;99.90;;;;;;5010858;28;20395;-66
2022/08/30 08:55:29;;;;;;;13.43;12.00;;;24.30;99.90;;;;;;5010708;28;20418;-67
2022/08/30 08:57:55;;;;;;;14.43;12.50;;;24.70;99.90;;;;;;5010888;28;20403;-66
2022/08/30 09:00:21;;;;;;;13.30;11.33;;;24.20;99.90;;;;;;5010666;28;20411;-67
2022/08/30 09:02:56;;;;;;;11.20;10.20;;;24.70;99.90;;;;;;5010815;28;20407;-67
2022/08/30 09:05:26;;;;;;;11.83;10.73;;;24.70;99.90;;;;;;5010182;28;20195;-67
2022/08/30 09:08:02;;;;;;;17.07;11.20;;;25.20;99.90;;;;;;5010165;28;20729;-67
2022/08/30 09:10:31;;;;;;;12.93;11.40;;;25.70;99.90;;;;;;5010506;28;20399;-67
2022/08/30 09:12:58;;;;;;;14.30;10.73;;;25.50;99.90;;;;;;5010439;28;20889;-67
2022/08/30 09:15:28;;;;;;;16.33;11.77;;;25.40;99.90;;;;;;5010331;28;20478;-67
2022/08/30 09:17:57;;;;;;;18.00;11.67;;;25.60;99.90;;;;;;5013698;28;20422;-67
2022/08/30 09:20:34;;;;;;;15.33;10.10;;;25.40;99.90;;;;;;5014438;28;20408;-67
2022/08/30 09:23:31;;;;;;;24.30;13.57;;;25.30;99.90;;;;;;5014519;28;20434;-67
2022/08/30 09:26:01;;;;;;;12.17;10.80;;;25.50;99.90;;;;;;5014196;28;20431;-67
2022/08/30 09:28:30;;;;;;;12.57;10.60;;;25.70;99.90;;;;;;5014517;28;20900;-67
2022/08/30 09:31:18;;;;;;;24.03;12.80;;;25.70;99.90;;;;;;5013173;28;20491;-67
2022/08/30 09:34:02;;;;;;;12.00;10.80;;;25.40;99.90;;;;;;5014259;28;20386;-67
2022/08/30 09:36:38;;;;;;;15.60;9.57;;;25.70;99.90;;;;;;5014174;28;20462;-67
2022/08/30 09:39:17;;;;;;;12.20;10.90;;;25.80;99.90;;;;;;5014085;28;20497;-67
2022/08/30 09:41:48;;;;;;;12.07;10.80;;;25.90;99.90;;;;;;5013984;28;20406;-67
2022/08/30 09:44:26;;;;;;;21.73;11.77;;;25.90;99.90;;;;;;5014074;28;20454;-67
2022/08/30 09:47:00;;;;;;;11.60;10.60;;;25.90;99.90;;;;;;5013862;28;20465;-67
2022/08/30 09:49:39;;;;;;;11.30;10.20;;;25.80;99.90;;;;;;5014271;28;20403;-67
2022/08/30 09:52:17;;;;;;;11.73;10.50;;;25.80;99.90;;;;;;5013889;28;20410;-66
2022/08/30 09:55:10;;;;;;;11.70;10.60;;;25.80;99.90;;;;;;5011948;28;20426;-65
2022/08/30 09:58:01;;;;;;;12.63;9.63;;;26.10;99.90;;;;;;5012162;28;20430;-65
2022/08/30 10:00:31;;;;;;;17.77;9.77;;;26.20;99.90;;;;;;5012511;28;20472;-67
2022/08/30 10:03:26;;;;;;;12.40;9.93;;;25.80;99.90;;;;;;5013599;28;20554;-66
2022/08/30 10:06:21;;;;;;;10.90;9.83;;;25.60;99.90;;;;;;4977207;28;20445;-66
2022/08/30 10:08:46;;;;;;;12.23;10.03;;;25.60;99.90;;;;;;5007781;28;20730;-66
2022/08/30 10:11:35;;;;;;;12.60;9.40;;;25.70;99.90;;;;;;5013412;28;20403;-66
2022/08/30 10:14:29;;;;;;;11.90;8.97;;;25.90;99.90;;;;;;5013394;28;20267;-66
2022/08/30 10:17:19;;;;;;;15.80;9.37;;;26.20;99.90;;;;;;5013501;28;20415;-66
2022/08/30 10:20:05;;;;;;;10.93;8.57;;;26.30;99.90;;;;;;5013263;28;20502;-66
2022/08/30 10:22:39;;;;;;;10.27;9.27;;;26.30;99.90;;;;;;5012899;28;20415;-66
2022/08/30 10:25:24;;;;;;;10.17;9.17;;;26.20;99.90;;;;;;5013166;28;20778;-66
2022/08/30 10:28:32;;;;;;;16.37;9.97;;;26.10;99.90;;;;;;5011855;28;20406;-67
2022/08/30 10:31:05;;;;;;;11.47;7.80;;;26.10;99.90;;;;;;5008052;28;20410;-67
2022/08/30 10:33:41;;;;;;;15.23;9.13;;;26.20;99.90;;;;;;5013134;28;20889;-67
2022/08/30 10:36:11;;;;;;;12.57;8.90;;;26.00;99.90;;;;;;5012982;28;20447;-67
2022/08/30 10:38:39;;;;;;;8.53;7.73;;;26.10;99.90;;;;;;5012708;28;20414;-67
2022/08/30 10:41:40;;;;;;;8.77;7.97;;;26.30;99.90;;;;;;5012976;28;20421;-66
2022/08/30 10:44:26;;;;;;;11.10;7.83;;;26.30;99.90;;;;;;5005349;28;20817;-67
2022/08/30 10:46:59;;;;;;;8.57;7.87;;;26.40;99.90;;;;;;5012919;28;20817;-67
2022/08/30 10:49:28;;;;;;;16.97;8.80;;;26.80;99.90;;;;;;5012766;28;20402;-67
2022/08/30 10:52:29;;;;;;;10.20;7.73;;;26.50;99.90;;;;;;5012594;28;20494;-67
2022/08/30 10:55:24;;;;;;;8.20;7.40;;;26.10;99.90;;;;;;4999613;28;20780;-66
2022/08/30 10:57:50;;;;;;;10.57;7.17;;;25.80;99.90;;;;;;4994259;28;20443;-67
2022/08/30 11:00:27;;;;;;;7.83;7.13;;;25.90;99.90;;;;;;5012665;28;20431;-66
2022/08/30 11:03:35;;;;;;;12.70;8.30;;;26.10;99.90;;;;;;5013121;28;20392;-66
2022/08/30 11:06:37;;;;;;;10.30;8.77;;;26.00;99.90;;;;;;5012558;28;20489;-66
2022/08/30 11:09:26;;;;;;;11.80;7.50;;;26.00;99.90;;;;;;5012154;28;20434;-66
2022/08/30 11:12:01;;;;;;;8.73;7.67;;;26.30;99.90;;;;;;5006703;28;20469;-66
2022/08/30 11:14:28;;;;;;;9.33;7.10;;;26.20;99.90;;;;;;5012268;28;20626;-67
2022/08/30 11:16:57;;;;;;;11.63;8.10;;;26.20;99.90;;;;;;5011987;28;20419;-67
2022/08/30 11:19:27;;;;;;;9.30;7.90;;;26.10;99.90;;;;;;5012492;28;20923;-67
2022/08/30 11:22:13;;;;;;;7.67;7.07;;;26.40;99.90;;;;;;5012493;28;20399;-66
2022/08/30 11:24:59;;;;;;;12.10;6.90;;;26.40;99.90;;;;;;5012845;28;20797;-66
2022/08/30 11:27:45;;;;;;;13.90;7.40;;;26.40;99.90;;;;;;5012373;28;20465;-67
2022/08/30 11:30:26;;;;;;;11.53;6.97;;;26.30;99.90;;;;;;5001478;28;20403;-67
2022/08/30 11:33:02;;;;;;;7.17;5.77;;;26.30;99.90;;;;;;5012200;28;20457;-67
2022/08/30 11:35:51;;;;;;;8.80;6.60;;;26.20;99.90;;;;;;5013473;28;20399;-67
2022/08/30 11:38:16;;;;;;;9.93;6.57;;;26.20;99.90;;;;;;5012100;28;21053;-67
2022/08/30 11:40:48;;;;;;;8.13;6.60;;;26.70;99.90;;;;;;5011968;28;20502;-67
2022/08/30 11:43:36;;;;;;;19.73;6.20;;;26.50;99.90;;;;;;5012284;28;20180;-67
2022/08/30 11:46:23;;;;;;;7.40;6.70;;;26.60;99.90;;;;;;5010338;28;20493;-67
2022/08/30 11:49:12;;;;;;;8.90;6.90;;;26.50;99.90;;;;;;5011919;28;20402;-67
2022/08/30 11:52:03;;;;;;;8.77;6.30;;;26.60;99.90;;;;;;5011948;28;20892;-67
2022/08/30 11:54:47;;;;;;;9.30;7.17;;;26.60;99.90;;;;;;5011800;28;20392;-67
2022/08/30 11:57:21;;;;;;;7.23;6.53;;;26.60;99.90;;;;;;5011506;28;20489;-67
2022/08/30 12:00:26;;;;;;;11.53;6.90;;;26.60;99.90;;;;;;5011997;28;20392;-67
2022/08/30 12:02:59;;;;;;;6.47;5.90;;;26.50;99.90;;;;;;5011542;28;20407;-66
2022/08/30 12:05:48;;;;;;;7.33;6.60;;;26.60;99.90;;;;;;5011439;28;20968;-67
2022/08/30 12:08:19;;;;;;;7.57;6.93;;;26.60;99.90;;;;;;5011622;28;20411;-66
2022/08/30 12:11:13;;;;;;;8.87;6.57;;;26.30;99.90;;;;;;5014156;28;20404;-67
2022/08/30 12:13:41;;;;;;;8.37;7.17;;;26.50;99.90;;;;;;5000371;28;20420;-67
2022/08/30 12:16:15;;;;;;;20.77;8.17;;;26.70;99.90;;;;;;5020936;28;20547;-68
2022/08/30 12:18:41;;;;;;;9.00;7.90;;;26.80;99.90;;;;;;5012871;28;20427;-67
2022/08/30 12:21:18;;;;;;;13.40;7.33;;;26.80;99.90;;;;;;5010996;28;21042;-67
2022/08/30 12:23:53;;;;;;;26.97;8.17;;;26.60;99.90;;;;;;5009844;28;20454;-68
2022/08/30 12:26:19;;;;;;;9.77;7.03;;;26.50;99.90;;;;;;5011374;28;20429;-67
2022/08/30 12:28:48;;;;;;;7.67;6.97;;;26.40;99.90;;;;;;5011061;28;21007;-67
2022/08/30 12:31:22;;;;;;;9.37;7.47;;;26.50;99.90;;;;;;5011208;28;20170;-68
2022/08/30 12:33:54;;;;;;;8.60;7.90;;;26.60;99.90;;;;;;5011146;28;20442;-68
2022/08/30 12:36:47;;;;;;;7.93;7.23;;;26.70;99.90;;;;;;5011235;28;20424;-68
2022/08/30 12:39:25;;;;;;;28.60;8.10;;;26.70;99.90;;;;;;5010833;28;20438;-67
2022/08/30 12:41:51;;;;;;;7.40;6.80;;;26.70;99.90;;;;;;5011223;28;20399;-67
2022/08/30 12:44:28;;;;;;;11.37;7.30;;;26.80;99.90;;;;;;5011561;28;20485;-67
2022/08/30 12:47:01;;;;;;;6.87;6.27;;;26.80;99.90;;;;;;5010640;28;20812;-67
2022/08/30 12:49:30;;;;;;;13.27;7.90;;;26.80;99.90;;;;;;5011176;28;20442;-67
2022/08/30 12:52:22;;;;;;;7.40;6.70;;;27.00;99.90;;;;;;5013085;28;20718;-67
2022/08/30 12:54:49;;;;;;;9.20;7.97;;;26.80;99.90;;;;;;5014727;28;20398;-67
2022/08/30 12:57:37;;;;;;;8.23;7.43;;;26.80;99.90;;;;;;5014909;28;20442;-67